Time;durP1;ratioP1;P1;durP2;ratioP2;P2;SDS_P1;SDS_P2;PMS_P1;PMS_P2;Temp;Humidity;BMP_temperature;BMP_pressure;BME280_temperature;BME280_humidity;BME280_pressure;Samples;Min_cycle;Max_cycle;Signal;HPM_P1;HPM_P2
2023/12/28 00:03:59;;;;;;;107.20;100.25;;;11.30;86.50;;;;;;12589481;28;20441;-74
2023/12/28 00:10:02;;;;;;;115.32;107.22;;;11.10;86.50;;;;;;12607907;28;20345;-74
2023/12/28 00:16:04;;;;;;;123.32;115.32;;;11.20;86.70;;;;;;12607603;28;20040;-74
2023/12/28 00:22:06;;;;;;;121.85;113.80;;;11.20;86.50;;;;;;12607244;28;20039;-74
2023/12/28 00:28:07;;;;;;;116.70;108.90;;;11.30;86.40;;;;;;12607665;28;20434;-74
2023/12/28 00:34:09;;;;;;;100.68;93.38;;;11.20;86.30;;;;;;12606539;28;20056;-74
2023/12/28 00:40:11;;;;;;;79.68;73.22;;;11.00;86.50;;;;;;12587600;28;20040;-74
2023/12/28 00:46:12;;;;;;;82.32;76.38;;;10.90;86.80;;;;;;12571484;28;20047;-74
2023/12/28 00:52:14;;;;;;;99.75;92.38;;;11.10;86.80;;;;;;12605490;28;20044;-74
2023/12/28 00:58:15;;;;;;;101.85;94.72;;;11.10;86.60;;;;;;12605309;28;20036;-74
2023/12/28 01:04:18;;;;;;;95.75;88.88;;;11.00;86.50;;;;;;12587589;28;20035;-74
2023/12/28 01:10:20;;;;;;;94.88;87.97;;;10.90;86.70;;;;;;12604528;28;20029;-74
2023/12/28 01:16:21;;;;;;;105.07;97.63;;;10.80;86.90;;;;;;12604969;28;20434;-74
2023/12/28 01:22:23;;;;;;;93.35;86.75;;;10.90;86.90;;;;;;12587010;28;20033;-72
2023/12/28 01:28:24;;;;;;;96.25;88.80;;;11.00;86.70;;;;;;12586858;28;20031;-72
2023/12/28 01:34:26;;;;;;;130.00;121.57;;;11.10;86.60;;;;;;12604581;28;20059;-72
2023/12/28 01:40:28;;;;;;;100.63;93.35;;;11.20;86.50;;;;;;12603850;28;20036;-72
2023/12/28 01:46:30;;;;;;;98.10;91.07;;;11.10;86.50;;;;;;12586499;28;20384;-72
2023/12/28 01:52:32;;;;;;;124.22;116.57;;;11.10;86.50;;;;;;12586384;28;20031;-72
2023/12/28 01:58:35;;;;;;;149.40;140.32;;;10.90;86.70;;;;;;12588722;28;20039;-72
2023/12/28 02:04:37;;;;;;;119.35;111.28;;;10.80;86.70;;;;;;12614122;28;20028;-72
2023/12/28 02:10:39;;;;;;;105.47;98.03;;;10.80;86.90;;;;;;12613833;28;20020;-72
2023/12/28 02:16:54;;;;;;;118.70;110.15;;;10.90;86.70;;;;;;12595119;28;20033;-72
2023/12/28 02:22:56;;;;;;;111.68;103.95;;;11.00;86.60;;;;;;12594662;28;20434;-72
2023/12/28 02:28:58;;;;;;;105.82;97.95;;;11.00;86.50;;;;;;12594305;28;20347;-72
2023/12/28 02:35:06;;;;;;;97.18;90.32;;;11.00;86.60;;;;;;12594125;28;20063;-72
2023/12/28 02:41:09;;;;;;;115.35;107.00;;;10.90;86.60;;;;;;12611771;28;20340;-72
2023/12/28 02:47:10;;;;;;;99.13;91.45;;;10.90;86.70;;;;;;12611049;28;20040;-72
2023/12/28 02:53:13;;;;;;;99.60;91.38;;;11.00;86.60;;;;;;12611154;28;20028;-72
2023/12/28 02:59:14;;;;;;;92.70;85.88;;;11.00;86.50;;;;;;12592875;28;20357;-72
2023/12/28 03:05:16;;;;;;;103.10;95.60;;;11.00;86.50;;;;;;12610765;28;20035;-72
2023/12/28 03:11:20;;;;;;;145.55;136.05;;;11.00;86.50;;;;;;12592332;28;20024;-72
2023/12/28 03:17:22;;;;;;;118.00;110.30;;;11.00;86.50;;;;;;12575415;28;20047;-72
2023/12/28 03:23:23;;;;;;;104.53;96.80;;;11.00;86.50;;;;;;12592385;28;20040;-72
2023/12/28 03:29:25;;;;;;;92.13;85.63;;;11.00;86.50;;;;;;12610132;28;20041;-72
2023/12/28 03:35:26;;;;;;;115.78;107.53;;;10.90;86.50;;;;;;12591760;28;20044;-72
2023/12/28 03:41:28;;;;;;;98.32;90.53;;;10.90;86.50;;;;;;12609462;28;20457;-72
2023/12/28 03:47:29;;;;;;;95.35;87.97;;;11.00;86.50;;;;;;12608378;28;20033;-72
2023/12/28 03:53:32;;;;;;;108.97;101.32;;;10.90;86.50;;;;;;12608834;28;20028;-72
2023/12/28 04:07:12;;;;;;;94.57;87.75;;;10.90;86.50;;;;;;12608207;28;20032;-74
2023/12/28 04:13:13;;;;;;;137.00;127.53;;;11.00;86.30;;;;;;12589813;28;20040;-74
2023/12/28 04:19:15;;;;;;;125.47;116.10;;;11.10;86.40;;;;;;12606814;28;20032;-74
2023/12/28 04:25:16;;;;;;;112.32;103.57;;;11.20;86.40;;;;;;12606583;28;20459;-74
2023/12/28 04:31:18;;;;;;;96.55;89.80;;;11.20;86.20;;;;;;12589162;28;20039;-74
2023/12/28 04:37:21;;;;;;;119.88;110.65;;;11.20;86.10;;;;;;12588738;28;20037;-74
2023/12/28 04:43:23;;;;;;;99.97;92.47;;;11.30;86.00;;;;;;12588624;28;20025;-74
2023/12/28 04:49:25;;;;;;;103.20;95.97;;;11.20;85.70;;;;;;12587371;28;20043;-74
2023/12/28 04:55:26;;;;;;;113.25;104.75;;;11.20;86.00;;;;;;12605668;28;20357;-74
2023/12/28 05:01:31;;;;;;;123.20;113.43;;;11.20;86.00;;;;;;12587819;28;20045;-74
2023/12/28 05:07:32;;;;;;;112.30;103.80;;;11.30;86.30;;;;;;12587554;28;20035;-74
2023/12/28 05:13:34;;;;;;;104.53;95.85;;;11.50;85.80;;;;;;12604212;28;20044;-74
2023/12/28 05:19:35;;;;;;;95.95;87.47;;;11.70;85.60;;;;;;12586187;28;20476;-74
2023/12/28 05:25:37;;;;;;;83.93;75.35;;;11.80;85.20;;;;;;12604611;28;20043;-74
2023/12/28 05:31:39;;;;;;;70.90;63.50;;;11.90;85.00;;;;;;12604732;28;20028;-74
2023/12/28 05:37:40;;;;;;;68.13;61.13;;;12.00;84.70;;;;;;12605106;28;20037;-74
2023/12/28 05:43:42;;;;;;;76.93;70.07;;;12.00;84.60;;;;;;12604346;28;20024;-74
2023/12/28 05:49:43;;;;;;;67.85;61.45;;;11.90;84.60;;;;;;12604215;28;20357;-74
2023/12/28 05:55:45;;;;;;;72.78;66.28;;;11.80;84.50;;;;;;12603475;28;20353;-74
2023/12/28 06:01:47;;;;;;;78.47;70.43;;;11.70;85.00;;;;;;12603854;28;20040;-74
2023/12/28 06:07:48;;;;;;;77.82;70.28;;;11.70;85.00;;;;;;12603846;28;20051;-74
2023/12/28 06:13:50;;;;;;;77.10;69.70;;;11.80;84.70;;;;;;12604346;28;20032;-74
2023/12/28 06:19:51;;;;;;;83.38;74.90;;;11.90;84.50;;;;;;12603457;28;20035;-74
2023/12/28 06:25:54;;;;;;;71.68;63.97;;;11.90;84.40;;;;;;12602878;28;20032;-74
2023/12/28 06:31:56;;;;;;;72.13;64.63;;;12.00;84.30;;;;;;12602148;28;20025;-74
2023/12/28 06:37:57;;;;;;;88.00;79.32;;;12.00;84.30;;;;;;12584912;28;20044;-74
2023/12/28 06:43:58;;;;;;;84.40;76.35;;;11.90;84.40;;;;;;12604469;28;20447;-74
2023/12/28 06:50:00;;;;;;;96.53;87.90;;;11.90;84.20;;;;;;12594180;28;20353;-74
2023/12/28 06:56:02;;;;;;;111.15;102.50;;;11.70;84.30;;;;;;12606963;22;20048;-74
2023/12/28 07:02:04;;;;;;;86.38;78.57;;;11.80;84.60;;;;;;12660895;28;20035;-74
2023/12/28 07:08:06;;;;;;;87.05;79.60;;;11.80;84.30;;;;;;12643586;28;20040;-74
2023/12/28 07:14:09;;;;;;;71.25;63.88;;;11.80;84.40;;;;;;12662270;28;20083;-74
2023/12/28 07:20:10;;;;;;;83.18;75.15;;;11.80;84.50;;;;;;12660505;28;20314;-74
2023/12/28 07:26:12;;;;;;;78.78;70.80;;;11.70;84.60;;;;;;12641905;28;20429;-74
2023/12/28 07:32:14;;;;;;;83.03;75.55;;;11.70;84.70;;;;;;12642088;28;20044;-74
2023/12/28 07:38:16;;;;;;;117.35;108.90;;;11.60;84.70;;;;;;12641348;28;20043;-74
2023/12/28 07:44:17;;;;;;;107.78;99.80;;;11.40;85.00;;;;;;12640955;28;20352;-74
2023/12/28 07:50:19;;;;;;;117.15;108.97;;;11.50;85.00;;;;;;12659440;28;20028;-74
2023/12/28 07:56:21;;;;;;;123.03;114.70;;;11.20;85.10;;;;;;12657265;28;20044;-74
2023/12/28 08:02:23;;;;;;;108.18;100.35;;;11.00;85.50;;;;;;12658137;28;20049;-74
2023/12/28 08:08:24;;;;;;;120.18;110.82;;;11.20;85.90;;;;;;12639828;28;20035;-74
2023/12/28 08:14:25;;;;;;;133.43;122.65;;;11.40;85.40;;;;;;12658357;28;20344;-74
2023/12/28 08:20:27;;;;;;;89.97;82.18;;;11.50;85.40;;;;;;12655487;28;20476;-75
2023/12/28 08:26:29;;;;;;;77.50;70.00;;;11.80;85.30;;;;;;12632289;28;20038;-75
2023/12/28 08:32:30;;;;;;;73.63;66.75;;;11.90;85.20;;;;;;12656412;28;20036;-75
2023/12/28 08:38:32;;;;;;;70.88;63.72;;;11.80;85.10;;;;;;12634648;28;20433;-75
2023/12/28 08:44:36;;;;;;;65.53;58.67;;;11.90;85.10;;;;;;12604335;28;20036;-75
2023/12/28 08:50:38;;;;;;;80.25;72.95;;;12.20;84.90;;;;;;12620788;28;20044;-75
2023/12/28 08:56:40;;;;;;;55.28;50.15;;;12.20;84.70;;;;;;12605473;28;20028;-75
2023/12/28 09:02:44;;;;;;;54.75;49.05;;;12.40;84.60;;;;;;12586927;28;20020;-75
2023/12/28 09:08:52;;;;;;;48.05;43.25;;;12.40;84.60;;;;;;12604541;28;20032;-75
2023/12/28 09:14:54;;;;;;;56.72;50.80;;;12.30;84.70;;;;;;12604553;28;20033;-75
2023/12/28 09:20:55;;;;;;;54.65;48.45;;;12.20;85.00;;;;;;12603144;28;20032;-75
2023/12/28 09:26:57;;;;;;;45.38;40.80;;;12.40;85.00;;;;;;12604120;28;20035;-75
2023/12/28 09:32:59;;;;;;;46.65;42.17;;;12.30;84.70;;;;;;12602823;28;20033;-75
2023/12/28 09:39:01;;;;;;;48.40;43.33;;;12.30;85.20;;;;;;12602762;28;20028;-75
2023/12/28 09:45:04;;;;;;;43.70;39.03;;;12.20;85.30;;;;;;12586664;28;20059;-75
2023/12/28 09:51:05;;;;;;;41.13;36.97;;;12.30;85.40;;;;;;12603659;28;20039;-75
2023/12/28 09:57:08;;;;;;;44.58;39.95;;;12.40;85.50;;;;;;12603230;28;20028;-75
2023/12/28 10:03:15;;;;;;;42.47;37.97;;;12.50;85.40;;;;;;12603966;28;20032;-75
2023/12/28 10:09:18;;;;;;;40.85;36.78;;;12.60;85.70;;;;;;12603228;28;20441;-75
2023/12/28 10:15:20;;;;;;;40.95;36.70;;;12.70;85.60;;;;;;12584326;28;20052;-75
2023/12/28 10:21:23;;;;;;;39.05;35.05;;;12.70;85.60;;;;;;12608234;28;20346;-75
2023/12/28 10:27:27;;;;;;;35.20;31.45;;;12.70;85.80;;;;;;12612381;28;20028;-75
2023/12/28 10:33:37;;;;;;;36.58;32.67;;;12.80;85.80;;;;;;12594213;28;20035;-75
2023/12/28 10:39:47;;;;;;;33.38;29.88;;;12.80;85.90;;;;;;12611688;28;20032;-75
2023/12/28 10:45:52;;;;;;;35.20;31.63;;;12.70;85.90;;;;;;12611252;28;20036;-75
2023/12/28 10:51:54;;;;;;;31.70;28.35;;;12.40;86.00;;;;;;12611136;28;20032;-75
2023/12/28 10:58:23;;;;;;;34.33;30.38;;;12.20;86.30;;;;;;12610772;28;20353;-75
2023/12/28 11:04:41;;;;;;;;;;;12.40;86.60;;;;;;12626535;28;20044;-75
2023/12/28 11:10:43;;;;;;;57.42;53.17;;;12.40;86.30;;;;;;12610369;28;19915;-75
2023/12/28 11:16:45;;;;;;;37.30;32.78;;;12.40;86.60;;;;;;12609938;28;20028;-75
2023/12/28 11:22:49;;;;;;;33.15;29.58;;;12.60;86.70;;;;;;12609773;28;20028;-75
2023/12/28 11:29:03;;;;;;;33.33;29.60;;;12.80;86.50;;;;;;12591666;28;20032;-75
2023/12/28 11:35:10;;;;;;;27.55;24.75;;;13.00;86.50;;;;;;12609259;28;20029;-75
2023/12/28 11:41:16;;;;;;;32.10;28.95;;;13.10;86.70;;;;;;12593948;28;20051;-75
2023/12/28 11:47:23;;;;;;;33.55;30.02;;;13.10;86.30;;;;;;12618391;28;20055;-75
2023/12/28 11:53:25;;;;;;;34.72;31.08;;;13.10;86.70;;;;;;12586602;28;20043;-75
2023/12/28 11:59:27;;;;;;;29.05;26.05;;;13.20;86.90;;;;;;12602410;28;20368;-73
2023/12/28 12:05:29;;;;;;;39.95;35.58;;;13.40;86.70;;;;;;12584773;28;20048;-73
2023/12/28 12:11:31;;;;;;;33.80;30.40;;;13.70;86.60;;;;;;12609933;28;20039;-73
2023/12/28 12:17:33;;;;;;;34.00;30.65;;;13.80;86.20;;;;;;12657711;28;20028;-73
2023/12/28 12:23:36;;;;;;;35.13;29.73;;;13.90;86.40;;;;;;12657513;28;20032;-73
2023/12/28 12:29:38;;;;;;;34.38;29.70;;;14.00;86.40;;;;;;12657268;28;20039;-73
2023/12/28 12:35:40;;;;;;;35.03;29.60;;;14.20;86.20;;;;;;12638535;28;20044;-73
2023/12/28 12:41:42;;;;;;;34.70;31.05;;;14.20;86.00;;;;;;12656378;28;20047;-73
2023/12/28 12:47:57;;;;;;;33.47;28.95;;;14.30;86.20;;;;;;12656295;28;20028;-74
2023/12/28 12:54:09;;;;;;;38.30;34.25;;;14.40;86.10;;;;;;12621305;28;20043;-73
2023/12/28 13:00:11;;;;;;;36.08;31.80;;;14.50;86.10;;;;;;12638125;28;20344;-73
2023/12/28 13:06:13;;;;;;;37.15;33.00;;;14.50;86.20;;;;;;12637455;28;20046;-74
2023/12/28 13:12:14;;;;;;;33.40;28.77;;;14.50;86.10;;;;;;12636832;28;20035;-74
2023/12/28 13:18:16;;;;;;;32.75;29.33;;;14.40;86.00;;;;;;12619872;28;20460;-74
2023/12/28 13:24:51;;;;;;;33.78;30.02;;;14.20;86.30;;;;;;12636487;28;20035;-74
2023/12/28 13:30:55;;;;;;;32.72;28.90;;;14.20;86.50;;;;;;12654305;28;20028;-74
2023/12/28 13:36:59;;;;;;;32.42;28.90;;;14.30;86.40;;;;;;12636231;28;20050;-74
2023/12/28 13:43:00;;;;;;;37.72;32.28;;;14.20;86.20;;;;;;12653959;28;20020;-75
2023/12/28 13:49:03;;;;;;;32.08;28.50;;;14.20;86.60;;;;;;12653830;28;20047;-74
2023/12/28 13:55:08;;;;;;;32.50;29.00;;;14.30;86.60;;;;;;12657368;28;20028;-75
2023/12/28 14:08:23;;;;;;;29.30;26.13;;;14.10;86.50;;;;;;12645651;28;20028;-74
2023/12/28 14:14:25;;;;;;;34.72;28.73;;;13.80;87.00;;;;;;12645965;28;20111;-74
2023/12/28 14:20:27;;;;;;;32.20;27.83;;;13.90;86.90;;;;;;12663680;28;20052;-74
2023/12/28 14:26:32;;;;;;;31.75;28.50;;;14.00;86.80;;;;;;12662662;28;20043;-73
2023/12/28 14:32:34;;;;;;;30.80;26.77;;;13.80;86.70;;;;;;12659464;28;20032;-73
2023/12/28 14:38:37;;;;;;;31.33;27.30;;;13.90;86.90;;;;;;12662261;28;20344;-73
2023/12/28 14:44:41;;;;;;;34.10;29.13;;;14.00;86.90;;;;;;12661972;28;20032;-73
2023/12/28 14:50:46;;;;;;;31.25;26.73;;;14.10;86.60;;;;;;12662361;28;20031;-73
2023/12/28 14:56:49;;;;;;;33.83;28.73;;;14.20;86.40;;;;;;12642071;22;20045;-73
2023/12/28 15:02:51;;;;;;;37.22;31.30;;;14.20;86.20;;;;;;12661232;28;20043;-72
2023/12/28 15:08:54;;;;;;;38.15;34.08;;;14.20;86.00;;;;;;12625979;28;20036;-73
2023/12/28 15:14:57;;;;;;;37.85;33.90;;;14.20;85.80;;;;;;12660474;28;20047;-73
2023/12/28 15:20:59;;;;;;;37.35;31.65;;;14.10;85.80;;;;;;12642084;28;20044;-73
2023/12/28 15:27:02;;;;;;;60.95;55.20;;;14.00;85.80;;;;;;12642575;28;20036;-73
2023/12/28 15:33:04;;;;;;;41.05;36.65;;;13.90;85.80;;;;;;12641502;28;20039;-73
2023/12/28 15:39:06;;;;;;;45.40;40.53;;;13.90;85.80;;;;;;12641297;28;20032;-73
2023/12/28 15:45:08;;;;;;;36.83;32.95;;;13.80;85.60;;;;;;12659180;28;20028;-73
2023/12/28 15:51:09;;;;;;;36.00;32.28;;;13.80;85.50;;;;;;12640902;28;20032;-73
2023/12/28 15:57:11;;;;;;;32.95;27.92;;;13.80;85.30;;;;;;12640450;28;20368;-73
2023/12/28 16:03:13;;;;;;;31.25;27.13;;;13.70;85.20;;;;;;12658279;28;20039;-73
2023/12/28 16:09:15;;;;;;;31.35;27.70;;;13.70;85.10;;;;;;12657999;28;20028;-73
2023/12/28 16:15:18;;;;;;;29.80;26.55;;;13.80;84.80;;;;;;12639781;28;20047;-73
2023/12/28 16:21:20;;;;;;;31.42;28.05;;;13.80;84.40;;;;;;12638647;28;20043;-73
2023/12/28 16:27:22;;;;;;;31.60;28.15;;;13.80;84.30;;;;;;12657135;28;20043;-73
2023/12/28 16:33:23;;;;;;;32.92;27.63;;;13.80;84.20;;;;;;12638851;28;20035;-73
2023/12/28 16:39:25;;;;;;;33.15;27.75;;;13.60;84.10;;;;;;12638450;28;20040;-73
2023/12/28 16:45:27;;;;;;;29.35;26.02;;;13.60;84.30;;;;;;12656236;28;20028;-73
2023/12/28 16:51:29;;;;;;;30.65;27.42;;;13.60;84.00;;;;;;12655908;28;20039;-73
2023/12/28 16:57:30;;;;;;;32.47;28.90;;;13.30;84.50;;;;;;12632310;28;20044;-74
2023/12/28 17:03:32;;;;;;;32.38;27.63;;;13.40;84.30;;;;;;12622003;28;20036;-73
2023/12/28 17:09:34;;;;;;;37.88;31.42;;;13.50;84.00;;;;;;12655302;28;20024;-75
2023/12/28 17:15:39;;;;;;;35.08;31.42;;;13.30;84.10;;;;;;12654881;28;20040;-75
2023/12/28 17:21:43;;;;;;;37.58;32.03;;;13.20;84.10;;;;;;12655116;28;20032;-75
2023/12/28 17:27:55;;;;;;;36.30;31.63;;;13.20;84.10;;;;;;12619807;28;20039;-75
2023/12/28 17:33:57;;;;;;;36.55;32.60;;;13.10;84.30;;;;;;12636428;28;20429;-75
2023/12/28 17:39:59;;;;;;;33.63;29.42;;;13.20;84.30;;;;;;12679400;28;20051;-75
2023/12/28 17:46:18;;;;;;;35.70;31.75;;;13.20;84.00;;;;;;12670481;28;20035;-75
2023/12/28 17:52:24;;;;;;;39.90;35.73;;;13.00;84.30;;;;;;12704502;28;20039;-75
2023/12/28 17:58:25;;;;;;;43.70;36.60;;;13.20;84.70;;;;;;12670135;28;20046;-75
2023/12/28 18:04:29;;;;;;;46.00;39.72;;;13.20;84.10;;;;;;12682577;28;20047;-75
2023/12/28 18:10:31;;;;;;;43.25;38.63;;;13.20;84.30;;;;;;12704088;28;20343;-75
2023/12/28 18:16:34;;;;;;;44.00;39.13;;;13.20;84.20;;;;;;12703886;28;20031;-75
2023/12/28 18:22:37;;;;;;;45.08;40.22;;;13.30;83.80;;;;;;12703213;28;20019;-75
2023/12/28 18:28:39;;;;;;;46.55;39.25;;;13.20;83.90;;;;;;12703421;28;20032;-75
2023/12/28 18:34:44;;;;;;;48.35;41.10;;;13.20;83.80;;;;;;12703442;28;20023;-75
2023/12/28 18:40:46;;;;;;;53.50;46.90;;;13.10;83.80;;;;;;12687534;28;20456;-76
2023/12/28 18:46:48;;;;;;;68.63;56.00;;;13.10;84.00;;;;;;12694608;28;20030;-75
2023/12/28 18:52:50;;;;;;;56.03;50.20;;;13.20;83.90;;;;;;12694162;28;20047;-74
2023/12/28 18:58:52;;;;;;;53.00;45.00;;;13.10;83.90;;;;;;12711982;28;20436;-75
2023/12/28 19:04:54;;;;;;;51.13;45.70;;;12.80;83.90;;;;;;12693772;28;20028;-75
2023/12/28 19:11:13;;;;;;;51.80;46.35;;;12.60;84.50;;;;;;12711602;28;20032;-75
2023/12/28 19:17:14;;;;;;;61.00;51.13;;;12.80;84.30;;;;;;12699489;28;20036;-75
2023/12/28 19:23:16;;;;;;;55.88;48.78;;;12.90;84.00;;;;;;12660297;28;20266;-75
2023/12/28 19:29:18;;;;;;;59.08;52.08;;;13.00;83.70;;;;;;12660111;28;20047;-75
2023/12/28 19:35:19;;;;;;;58.60;52.83;;;12.60;83.80;;;;;;12659780;28;20032;-75
2023/12/28 19:41:21;;;;;;;87.20;80.75;;;12.30;84.10;;;;;;12659421;28;20035;-75
2023/12/28 19:47:23;;;;;;;64.43;57.95;;;12.20;84.30;;;;;;12641186;28;20449;-75
2023/12/28 19:53:25;;;;;;;57.05;51.13;;;12.10;84.70;;;;;;12658863;28;20036;-75
2023/12/28 19:59:27;;;;;;;52.58;47.40;;;12.30;84.60;;;;;;12658520;28;20432;-75
2023/12/28 20:05:28;;;;;;;55.85;49.70;;;12.30;84.10;;;;;;12640177;28;20059;-75
2023/12/28 20:11:31;;;;;;;48.05;42.13;;;12.30;84.30;;;;;;12658018;28;20032;-75
2023/12/28 20:17:33;;;;;;;56.17;50.85;;;12.40;84.20;;;;;;12657578;28;20349;-75
2023/12/28 20:23:35;;;;;;;59.83;54.22;;;12.50;84.10;;;;;;12657500;28;20039;-75
2023/12/28 20:29:37;;;;;;;49.85;44.30;;;12.50;84.00;;;;;;12639186;28;20036;-75
2023/12/28 20:35:40;;;;;;;49.50;44.33;;;12.40;84.00;;;;;;12656890;28;20055;-75
2023/12/28 20:41:41;;;;;;;58.50;52.20;;;12.30;84.20;;;;;;12640985;28;20039;-75
2023/12/28 20:47:43;;;;;;;65.25;58.75;;;12.30;84.20;;;;;;12707425;28;20042;-75
2023/12/28 20:53:45;;;;;;;58.47;50.33;;;12.20;84.00;;;;;;12707261;28;20038;-75
2023/12/28 20:59:48;;;;;;;56.58;45.67;;;12.10;84.10;;;;;;12706688;28;20035;-75
2023/12/28 21:05:50;;;;;;;54.35;48.42;;;12.20;84.60;;;;;;12706292;28;20023;-74
2023/12/28 21:11:52;;;;;;;50.90;45.15;;;12.30;84.90;;;;;;12688352;28;20031;-72
2023/12/28 21:17:54;;;;;;;72.13;66.20;;;12.20;84.90;;;;;;12705309;28;20043;-72
2023/12/28 21:23:55;;;;;;;60.97;55.25;;;12.20;84.90;;;;;;12687620;28;20034;-72
2023/12/28 21:29:57;;;;;;;55.28;49.72;;;12.20;84.80;;;;;;12705681;28;20024;-72
2023/12/28 21:35:59;;;;;;;72.68;65.50;;;12.20;84.70;;;;;;12670816;28;20036;-73
2023/12/28 21:42:02;;;;;;;58.00;52.13;;;12.10;85.00;;;;;;12687015;28;20470;-72
2023/12/28 21:48:04;;;;;;;78.88;72.60;;;12.20;85.00;;;;;;12669672;28;20462;-72
2023/12/28 21:54:06;;;;;;;63.10;56.22;;;12.30;84.60;;;;;;12704968;28;20039;-73
2023/12/28 22:00:09;;;;;;;57.10;49.20;;;12.40;84.70;;;;;;12704781;28;20040;-72
2023/12/28 22:06:11;;;;;;;67.15;56.38;;;12.10;84.90;;;;;;12704776;28;20350;-72
2023/12/28 22:12:13;;;;;;;82.13;74.85;;;12.10;85.10;;;;;;12665269;28;20453;-72
2023/12/28 22:18:15;;;;;;;60.05;54.13;;;12.20;85.00;;;;;;12660063;28;20043;-73
2023/12/28 22:24:16;;;;;;;83.03;76.30;;;12.20;84.80;;;;;;12663825;28;20024;-72
2023/12/28 22:30:19;;;;;;;75.18;68.10;;;11.90;85.10;;;;;;12645433;28;20043;-72
2023/12/28 22:36:20;;;;;;;96.47;89.43;;;11.90;85.30;;;;;;12628538;28;20051;-74
2023/12/28 22:42:22;;;;;;;87.13;79.03;;;12.10;85.40;;;;;;12663209;28;20365;-75
2023/12/28 22:48:24;;;;;;;108.40;100.55;;;11.90;85.30;;;;;;12631740;28;20044;-75
2023/12/28 22:54:26;;;;;;;121.40;113.55;;;11.70;85.60;;;;;;12662385;28;20028;-72
2023/12/28 23:00:34;;;;;;;177.65;166.55;;;11.60;85.60;;;;;;12700472;22;20035;-72
2023/12/28 23:06:35;;;;;;;215.13;203.53;;;11.50;85.90;;;;;;12712498;28;20340;-72
2023/12/28 23:12:37;;;;;;;134.52;125.50;;;11.70;85.60;;;;;;12712203;28;20039;-73
2023/12/28 23:18:39;;;;;;;122.40;113.47;;;11.70;85.60;;;;;;12711865;28;20479;-72
2023/12/28 23:24:41;;;;;;;141.27;130.60;;;11.80;85.40;;;;;;12710808;28;20028;-72
2023/12/28 23:30:44;;;;;;;125.97;117.45;;;11.80;85.20;;;;;;12692834;28;20035;-72
2023/12/28 23:36:46;;;;;;;137.45;127.72;;;11.70;85.10;;;;;;12710966;28;20039;-72
2023/12/28 23:42:47;;;;;;;162.68;152.23;;;11.60;85.40;;;;;;12710558;28;20035;-72
2023/12/28 23:48:49;;;;;;;159.60;149.18;;;11.60;85.50;;;;;;12710429;28;20039;-72
2023/12/28 23:54:51;;;;;;;124.55;115.25;;;11.70;85.40;;;;;;12709181;28;20027;-72
